Terminal Aerodrome Forecast
Issued by NWS

Home | Current Version | Previous Version | Text Only | Print | Product List | Glossary On
Versions: 1 2 3 4 5 6 7 8 9 10 11 12 13 14 15 16
586
FTUS43 KBIS 241120
TAFMOT
TAF
KMOT 241120Z 2412/2512 17014G23KT P6SM FEW110 FEW250
     FM242300 17013G20KT P6SM VCTS SCT100CB BKN200
     FM250300 32009KT P6SM FEW090 SCT200
     FM250600 30006KT P6SM FEW080 SCT200=

USA.gov is the U.S. government's official web portal to all federal, state and local government web resources and services.